SPTN/TCQ METAR and TAF weather

Enter ICAO airport designator
Station Type Date Time Source
SPTN METAR 2019/06/26 06:00 UTC NOAA

SPTN 260600Z VRB02KT 6000 3000N BR SCT009 OVC019 13/12 Q1016 RMK PP000


Station Type Date Time Source
SPTN Decoded METAR 2019/06/26 06:00 UTC NOAA

Tacna, Peru (SPTN) 18-04S 070-18W 469M
Jun 26, 2019 - 02:00 AM EDT / 2019.06.26 0600 UTC
Wind: Variable at 2 MPH (2 KT):0
Visibility: 3 mile(s):0
Sky conditions: overcast
Weather: mist
Temperature: 55 F (13 C)
Dew Point: 53 F (12 C)
Relative Humidity: 93%
Pressure (altimeter): 30.00 in. Hg (1016 hPa)
ob: SPTN 260600Z VRB02KT 6000 3000N BR SCT009 OVC019 13/12 Q1016 RMK PP000
cycle: 6

Station Type Date Time Source
SPTN TAF 2019/06/26 06:33 UTC NOAA

TAF SPTN 260500Z 2606/2706 15003KT 9999 SCT025 TX20/2619Z TN12/2610Z
TEMPO 2610/2613 BKN015
FM261500 23007KT 9999 SCT033
BECMG 2618/2620 CAVOK

Example: see airport list